sensor_id;sensor_type;location;lat;lon;timestamp;P1;durP1;ratioP1;P2;durP2;ratioP2
78581;SDS011;67878;46.242;5.974;2023-07-24T00:00:25;5.65;;;3.80;;
78581;SDS011;67878;46.242;5.974;2023-07-24T00:02:50;5.15;;;4.20;;
78581;SDS011;67878;46.242;5.974;2023-07-24T00:05:16;4.75;;;3.88;;
78581;SDS011;67878;46.242;5.974;2023-07-24T00:07:41;5.80;;;3.97;;
78581;SDS011;67878;46.242;5.974;2023-07-24T00:10:07;6.00;;;4.25;;
78581;SDS011;67878;46.242;5.974;2023-07-24T00:12:32;6.60;;;4.30;;
78581;SDS011;67878;46.242;5.974;2023-07-24T00:14:58;5.57;;;3.90;;
78581;SDS011;67878;46.242;5.974;2023-07-24T00:17:23;5.70;;;4.32;;
78581;SDS011;67878;46.242;5.974;2023-07-24T00:19:49;6.07;;;4.20;;
78581;SDS011;67878;46.242;5.974;2023-07-24T00:22:14;6.15;;;3.80;;
78581;SDS011;67878;46.242;5.974;2023-07-24T00:24:39;5.90;;;4.28;;
78581;SDS011;67878;46.242;5.974;2023-07-24T00:27:05;5.30;;;3.70;;
78581;SDS011;67878;46.242;5.974;2023-07-24T00:29:30;6.07;;;4.28;;
78581;SDS011;67878;46.242;5.974;2023-07-24T00:31:55;5.75;;;3.75;;
78581;SDS011;67878;46.242;5.974;2023-07-24T00:34:21;5.43;;;4.18;;
78581;SDS011;67878;46.242;5.974;2023-07-24T00:36:46;5.18;;;4.20;;
78581;SDS011;67878;46.242;5.974;2023-07-24T00:39:13;4.80;;;4.03;;
78581;SDS011;67878;46.242;5.974;2023-07-24T00:41:39;5.25;;;4.20;;
78581;SDS011;67878;46.242;5.974;2023-07-24T00:44:04;5.38;;;4.00;;
78581;SDS011;67878;46.242;5.974;2023-07-24T00:46:30;5.72;;;4.03;;
78581;SDS011;67878;46.242;5.974;2023-07-24T00:48:57;5.53;;;4.07;;
78581;SDS011;67878;46.242;5.974;2023-07-24T00:51:24;5.72;;;3.83;;
78581;SDS011;67878;46.242;5.974;2023-07-24T00:53:51;5.78;;;4.10;;
78581;SDS011;67878;46.242;5.974;2023-07-24T00:56:16;5.25;;;3.70;;
78581;SDS011;67878;46.242;5.974;2023-07-24T00:58:42;6.75;;;3.58;;
78581;SDS011;67878;46.242;5.974;2023-07-24T01:01:07;6.45;;;4.05;;
78581;SDS011;67878;46.242;5.974;2023-07-24T01:03:34;5.45;;;4.00;;
78581;SDS011;67878;46.242;5.974;2023-07-24T01:06:03;5.95;;;4.10;;
78581;SDS011;67878;46.242;5.974;2023-07-24T01:08:29;5.55;;;3.88;;
78581;SDS011;67878;46.242;5.974;2023-07-24T01:10:59;6.20;;;4.30;;
78581;SDS011;67878;46.242;5.974;2023-07-24T01:13:28;5.85;;;3.85;;
78581;SDS011;67878;46.242;5.974;2023-07-24T01:16:04;6.07;;;4.43;;
78581;SDS011;67878;46.242;5.974;2023-07-24T01:18:34;3.97;;;3.45;;
78581;SDS011;67878;46.242;5.974;2023-07-24T01:21:02;6.18;;;4.18;;
78581;SDS011;67878;46.242;5.974;2023-07-24T01:23:38;5.15;;;4.07;;
78581;SDS011;67878;46.242;5.974;2023-07-24T01:26:11;5.43;;;3.90;;
78581;SDS011;67878;46.242;5.974;2023-07-24T01:28:37;4.75;;;3.85;;
78581;SDS011;67878;46.242;5.974;2023-07-24T01:31:02;4.82;;;4.10;;
78581;SDS011;67878;46.242;5.974;2023-07-24T01:33:28;5.00;;;3.60;;
78581;SDS011;67878;46.242;5.974;2023-07-24T01:35:59;5.55;;;4.10;;
78581;SDS011;67878;46.242;5.974;2023-07-24T01:38:26;5.88;;;4.28;;
78581;SDS011;67878;46.242;5.974;2023-07-24T01:40:53;6.05;;;4.25;;
78581;SDS011;67878;46.242;5.974;2023-07-24T01:43:19;4.85;;;4.00;;
78581;SDS011;67878;46.242;5.974;2023-07-24T01:45:44;5.78;;;4.30;;
78581;SDS011;67878;46.242;5.974;2023-07-24T01:48:09;5.72;;;3.75;;
78581;SDS011;67878;46.242;5.974;2023-07-24T01:50:35;5.45;;;4.28;;
78581;SDS011;67878;46.242;5.974;2023-07-24T01:53:01;6.43;;;4.20;;
78581;SDS011;67878;46.242;5.974;2023-07-24T01:55:26;5.20;;;3.95;;
78581;SDS011;67878;46.242;5.974;2023-07-24T01:57:51;5.43;;;3.78;;
78581;SDS011;67878;46.242;5.974;2023-07-24T02:00:17;4.60;;;3.65;;
78581;SDS011;67878;46.242;5.974;2023-07-24T02:02:42;5.18;;;3.80;;
78581;SDS011;67878;46.242;5.974;2023-07-24T02:05:08;5.70;;;4.10;;
78581;SDS011;67878;46.242;5.974;2023-07-24T02:07:33;6.88;;;3.97;;
78581;SDS011;67878;46.242;5.974;2023-07-24T02:09:59;6.10;;;4.00;;
78581;SDS011;67878;46.242;5.974;2023-07-24T02:12:24;5.30;;;4.30;;
78581;SDS011;67878;46.242;5.974;2023-07-24T02:14:49;4.57;;;3.53;;
78581;SDS011;67878;46.242;5.974;2023-07-24T02:17:16;5.20;;;4.35;;
78581;SDS011;67878;46.242;5.974;2023-07-24T02:19:42;4.70;;;3.88;;
78581;SDS011;67878;46.242;5.974;2023-07-24T02:22:08;6.68;;;3.70;;
78581;SDS011;67878;46.242;5.974;2023-07-24T02:24:33;5.18;;;3.90;;
78581;SDS011;67878;46.242;5.974;2023-07-24T02:26:58;5.78;;;4.03;;
78581;SDS011;67878;46.242;5.974;2023-07-24T02:29:24;4.85;;;3.75;;
78581;SDS011;67878;46.242;5.974;2023-07-24T02:31:50;4.88;;;3.80;;
78581;SDS011;67878;46.242;5.974;2023-07-24T02:34:15;5.28;;;3.70;;
78581;SDS011;67878;46.242;5.974;2023-07-24T02:36:41;6.35;;;3.90;;
78581;SDS011;67878;46.242;5.974;2023-07-24T02:39:06;5.57;;;3.83;;
78581;SDS011;67878;46.242;5.974;2023-07-24T02:41:32;5.45;;;3.95;;
78581;SDS011;67878;46.242;5.974;2023-07-24T02:43:57;4.63;;;3.65;;
78581;SDS011;67878;46.242;5.974;2023-07-24T02:46:23;5.15;;;3.60;;
78581;SDS011;67878;46.242;5.974;2023-07-24T02:48:50;6.63;;;3.88;;
78581;SDS011;67878;46.242;5.974;2023-07-24T02:51:15;5.80;;;4.60;;
78581;SDS011;67878;46.242;5.974;2023-07-24T02:53:41;3.95;;;3.42;;
78581;SDS011;67878;46.242;5.974;2023-07-24T02:56:06;5.47;;;4.07;;
78581;SDS011;67878;46.242;5.974;2023-07-24T02:58:31;5.72;;;4.20;;
78581;SDS011;67878;46.242;5.974;2023-07-24T03:01:06;5.78;;;4.20;;
78581;SDS011;67878;46.242;5.974;2023-07-24T03:03:32;4.45;;;3.60;;
78581;SDS011;67878;46.242;5.974;2023-07-24T03:05:58;5.45;;;3.78;;
78581;SDS011;67878;46.242;5.974;2023-07-24T03:08:24;5.75;;;3.63;;
78581;SDS011;67878;46.242;5.974;2023-07-24T03:10:49;4.82;;;3.75;;
78581;SDS011;67878;46.242;5.974;2023-07-24T03:13:14;6.82;;;4.00;;
78581;SDS011;67878;46.242;5.974;2023-07-24T03:15:40;6.35;;;3.80;;
78581;SDS011;67878;46.242;5.974;2023-07-24T03:18:05;5.07;;;3.72;;
78581;SDS011;67878;46.242;5.974;2023-07-24T03:20:30;4.50;;;3.67;;
78581;SDS011;67878;46.242;5.974;2023-07-24T03:22:56;5.20;;;3.80;;
78581;SDS011;67878;46.242;5.974;2023-07-24T03:25:21;4.35;;;3.78;;
78581;SDS011;67878;46.242;5.974;2023-07-24T03:27:47;5.13;;;3.80;;
78581;SDS011;67878;46.242;5.974;2023-07-24T03:30:12;7.10;;;3.55;;
78581;SDS011;67878;46.242;5.974;2023-07-24T03:32:39;5.32;;;3.50;;
78581;SDS011;67878;46.242;5.974;2023-07-24T03:35:05;4.85;;;3.67;;
78581;SDS011;67878;46.242;5.974;2023-07-24T03:37:31;5.38;;;3.88;;
78581;SDS011;67878;46.242;5.974;2023-07-24T03:39:58;5.07;;;3.63;;
78581;SDS011;67878;46.242;5.974;2023-07-24T03:42:26;4.80;;;3.53;;
78581;SDS011;67878;46.242;5.974;2023-07-24T03:44:53;5.35;;;3.90;;
78581;SDS011;67878;46.242;5.974;2023-07-24T03:47:19;5.53;;;3.58;;
78581;SDS011;67878;46.242;5.974;2023-07-24T03:49:45;4.10;;;3.70;;
78581;SDS011;67878;46.242;5.974;2023-07-24T03:52:10;4.55;;;3.35;;
78581;SDS011;67878;46.242;5.974;2023-07-24T03:54:35;5.63;;;3.58;;
78581;SDS011;67878;46.242;5.974;2023-07-24T03:57:01;3.80;;;3.10;;
78581;SDS011;67878;46.242;5.974;2023-07-24T03:59:27;3.88;;;3.10;;
78581;SDS011;67878;46.242;5.974;2023-07-24T04:01:52;4.85;;;3.53;;
78581;SDS011;67878;46.242;5.974;2023-07-24T04:04:17;5.03;;;3.75;;
78581;SDS011;67878;46.242;5.974;2023-07-24T04:06:43;4.55;;;3.80;;
78581;SDS011;67878;46.242;5.974;2023-07-24T04:09:08;4.28;;;2.97;;
78581;SDS011;67878;46.242;5.974;2023-07-24T04:11:35;5.35;;;3.78;;
78581;SDS011;67878;46.242;5.974;2023-07-24T04:14:03;4.82;;;3.17;;
78581;SDS011;67878;46.242;5.974;2023-07-24T04:16:28;5.03;;;3.35;;
78581;SDS011;67878;46.242;5.974;2023-07-24T04:18:54;5.00;;;3.65;;
78581;SDS011;67878;46.242;5.974;2023-07-24T04:21:19;5.47;;;3.35;;
78581;SDS011;67878;46.242;5.974;2023-07-24T04:23:44;4.53;;;3.47;;
78581;SDS011;67878;46.242;5.974;2023-07-24T04:26:11;4.38;;;3.22;;
78581;SDS011;67878;46.242;5.974;2023-07-24T04:28:39;5.57;;;3.50;;
78581;SDS011;67878;46.242;5.974;2023-07-24T04:31:04;4.25;;;3.25;;
78581;SDS011;67878;46.242;5.974;2023-07-24T04:33:29;4.45;;;3.40;;
78581;SDS011;67878;46.242;5.974;2023-07-24T04:35:55;4.15;;;3.75;;
78581;SDS011;67878;46.242;5.974;2023-07-24T04:38:21;4.00;;;3.33;;
78581;SDS011;67878;46.242;5.974;2023-07-24T04:40:46;3.72;;;2.90;;
78581;SDS011;67878;46.242;5.974;2023-07-24T04:43:11;4.55;;;3.35;;
78581;SDS011;67878;46.242;5.974;2023-07-24T04:45:37;4.38;;;3.38;;
78581;SDS011;67878;46.242;5.974;2023-07-24T04:48:02;4.22;;;2.97;;
78581;SDS011;67878;46.242;5.974;2023-07-24T04:50:28;4.35;;;3.05;;
78581;SDS011;67878;46.242;5.974;2023-07-24T04:52:54;4.20;;;3.17;;
78581;SDS011;67878;46.242;5.974;2023-07-24T04:55:19;3.95;;;3.47;;
78581;SDS011;67878;46.242;5.974;2023-07-24T04:57:45;3.88;;;3.00;;
78581;SDS011;67878;46.242;5.974;2023-07-24T05:00:11;4.80;;;3.40;;
78581;SDS011;67878;46.242;5.974;2023-07-24T05:02:37;3.97;;;3.45;;
78581;SDS011;67878;46.242;5.974;2023-07-24T05:05:02;4.70;;;3.15;;
78581;SDS011;67878;46.242;5.974;2023-07-24T05:07:28;4.30;;;2.65;;
78581;SDS011;67878;46.242;5.974;2023-07-24T05:09:53;4.97;;;3.08;;
78581;SDS011;67878;46.242;5.974;2023-07-24T05:12:18;5.55;;;3.63;;
78581;SDS011;67878;46.242;5.974;2023-07-24T05:14:44;4.35;;;3.20;;
78581;SDS011;67878;46.242;5.974;2023-07-24T05:17:09;4.50;;;3.17;;
78581;SDS011;67878;46.242;5.974;2023-07-24T05:19:34;4.68;;;3.50;;
78581;SDS011;67878;46.242;5.974;2023-07-24T05:22:00;4.65;;;3.30;;
78581;SDS011;67878;46.242;5.974;2023-07-24T05:24:25;4.60;;;3.17;;
78581;SDS011;67878;46.242;5.974;2023-07-24T05:26:50;3.88;;;2.97;;
78581;SDS011;67878;46.242;5.974;2023-07-24T05:29:16;4.03;;;3.30;;
78581;SDS011;67878;46.242;5.974;2023-07-24T05:31:41;3.88;;;3.38;;
78581;SDS011;67878;46.242;5.974;2023-07-24T05:34:07;4.30;;;3.25;;
78581;SDS011;67878;46.242;5.974;2023-07-24T05:36:33;4.20;;;3.33;;
78581;SDS011;67878;46.242;5.974;2023-07-24T05:38:58;3.67;;;2.88;;
78581;SDS011;67878;46.242;5.974;2023-07-24T05:41:24;3.90;;;2.65;;
78581;SDS011;67878;46.242;5.974;2023-07-24T05:43:49;5.28;;;3.20;;
78581;SDS011;67878;46.242;5.974;2023-07-24T05:46:15;4.18;;;3.20;;
78581;SDS011;67878;46.242;5.974;2023-07-24T05:48:40;4.20;;;2.90;;
78581;SDS011;67878;46.242;5.974;2023-07-24T05:51:06;3.65;;;3.10;;
78581;SDS011;67878;46.242;5.974;2023-07-24T05:53:31;4.13;;;3.22;;
78581;SDS011;67878;46.242;5.974;2023-07-24T05:55:57;5.82;;;3.15;;
78581;SDS011;67878;46.242;5.974;2023-07-24T05:58:24;4.20;;;3.28;;
78581;SDS011;67878;46.242;5.974;2023-07-24T06:00:51;4.80;;;3.13;;
78581;SDS011;67878;46.242;5.974;2023-07-24T06:03:24;3.85;;;2.80;;
78581;SDS011;67878;46.242;5.974;2023-07-24T06:05:50;3.85;;;3.08;;
78581;SDS011;67878;46.242;5.974;2023-07-24T06:08:17;4.63;;;3.05;;
78581;SDS011;67878;46.242;5.974;2023-07-24T06:10:45;5.35;;;2.80;;
78581;SDS011;67878;46.242;5.974;2023-07-24T06:13:16;3.67;;;3.03;;
78581;SDS011;67878;46.242;5.974;2023-07-24T06:15:42;6.97;;;3.30;;
78581;SDS011;67878;46.242;5.974;2023-07-24T06:18:08;5.22;;;2.90;;
78581;SDS011;67878;46.242;5.974;2023-07-24T06:20:33;5.97;;;3.50;;
78581;SDS011;67878;46.242;5.974;2023-07-24T06:22:59;5.22;;;3.10;;
78581;SDS011;67878;46.242;5.974;2023-07-24T06:25:24;3.90;;;2.95;;
78581;SDS011;67878;46.242;5.974;2023-07-24T06:27:50;5.97;;;3.35;;
78581;SDS011;67878;46.242;5.974;2023-07-24T06:30:15;4.22;;;3.22;;
78581;SDS011;67878;46.242;5.974;2023-07-24T06:32:40;4.60;;;2.85;;
78581;SDS011;67878;46.242;5.974;2023-07-24T06:35:06;4.82;;;3.25;;
78581;SDS011;67878;46.242;5.974;2023-07-24T06:37:31;4.68;;;3.20;;
78581;SDS011;67878;46.242;5.974;2023-07-24T06:39:57;4.90;;;3.08;;
78581;SDS011;67878;46.242;5.974;2023-07-24T06:42:22;4.30;;;3.30;;
78581;SDS011;67878;46.242;5.974;2023-07-24T06:44:48;3.80;;;3.15;;
78581;SDS011;67878;46.242;5.974;2023-07-24T06:47:13;5.20;;;2.97;;
78581;SDS011;67878;46.242;5.974;2023-07-24T06:49:38;6.32;;;3.40;;
78581;SDS011;67878;46.242;5.974;2023-07-24T06:52:04;4.20;;;3.08;;
78581;SDS011;67878;46.242;5.974;2023-07-24T06:54:29;6.30;;;3.47;;
78581;SDS011;67878;46.242;5.974;2023-07-24T06:56:55;5.57;;;3.40;;
78581;SDS011;67878;46.242;5.974;2023-07-24T06:59:20;4.60;;;3.53;;
78581;SDS011;67878;46.242;5.974;2023-07-24T07:01:45;5.78;;;2.83;;
78581;SDS011;67878;46.242;5.974;2023-07-24T07:04:11;4.03;;;2.63;;
78581;SDS011;67878;46.242;5.974;2023-07-24T07:06:36;9.27;;;3.50;;
78581;SDS011;67878;46.242;5.974;2023-07-24T07:09:02;5.70;;;3.25;;
78581;SDS011;67878;46.242;5.974;2023-07-24T07:11:28;4.70;;;3.22;;
78581;SDS011;67878;46.242;5.974;2023-07-24T07:13:53;8.60;;;4.22;;
78581;SDS011;67878;46.242;5.974;2023-07-24T07:16:18;10.38;;;4.05;;
78581;SDS011;67878;46.242;5.974;2023-07-24T07:18:44;6.68;;;3.83;;
78581;SDS011;67878;46.242;5.974;2023-07-24T07:21:10;5.57;;;3.13;;
78581;SDS011;67878;46.242;5.974;2023-07-24T07:23:35;7.78;;;4.47;;
78581;SDS011;67878;46.242;5.974;2023-07-24T07:26:00;5.57;;;4.40;;
78581;SDS011;67878;46.242;5.974;2023-07-24T07:28:27;7.75;;;4.40;;
78581;SDS011;67878;46.242;5.974;2023-07-24T07:30:53;7.10;;;4.40;;
78581;SDS011;67878;46.242;5.974;2023-07-24T07:33:19;8.88;;;4.85;;
78581;SDS011;67878;46.242;5.974;2023-07-24T07:35:46;8.55;;;4.53;;
78581;SDS011;67878;46.242;5.974;2023-07-24T07:38:12;9.55;;;4.63;;
78581;SDS011;67878;46.242;5.974;2023-07-24T07:40:37;8.57;;;4.68;;
78581;SDS011;67878;46.242;5.974;2023-07-24T07:43:04;9.88;;;5.28;;
78581;SDS011;67878;46.242;5.974;2023-07-24T07:45:29;6.72;;;4.97;;
78581;SDS011;67878;46.242;5.974;2023-07-24T07:47:54;6.40;;;4.30;;
78581;SDS011;67878;46.242;5.974;2023-07-24T07:50:20;7.50;;;4.43;;
78581;SDS011;67878;46.242;5.974;2023-07-24T07:52:45;6.60;;;4.60;;
78581;SDS011;67878;46.242;5.974;2023-07-24T07:55:11;7.10;;;4.90;;
78581;SDS011;67878;46.242;5.974;2023-07-24T07:57:37;7.25;;;4.78;;
78581;SDS011;67878;46.242;5.974;2023-07-24T08:00:04;6.47;;;5.15;;
78581;SDS011;67878;46.242;5.974;2023-07-24T08:02:34;6.13;;;4.63;;
78581;SDS011;67878;46.242;5.974;2023-07-24T08:05:00;9.10;;;5.15;;
78581;SDS011;67878;46.242;5.974;2023-07-24T08:07:25;8.98;;;5.25;;
78581;SDS011;67878;46.242;5.974;2023-07-24T08:09:51;8.48;;;4.97;;
78581;SDS011;67878;46.242;5.974;2023-07-24T08:12:16;7.40;;;4.82;;
78581;SDS011;67878;46.242;5.974;2023-07-24T08:14:42;6.78;;;4.93;;
78581;SDS011;67878;46.242;5.974;2023-07-24T08:17:07;7.85;;;4.90;;
78581;SDS011;67878;46.242;5.974;2023-07-24T08:19:33;7.43;;;4.65;;
78581;SDS011;67878;46.242;5.974;2023-07-24T08:21:58;7.63;;;5.07;;
78581;SDS011;67878;46.242;5.974;2023-07-24T08:24:23;7.57;;;4.60;;
78581;SDS011;67878;46.242;5.974;2023-07-24T08:26:50;6.00;;;4.72;;
78581;SDS011;67878;46.242;5.974;2023-07-24T08:29:20;7.65;;;4.70;;
78581;SDS011;67878;46.242;5.974;2023-07-24T08:31:48;8.35;;;5.45;;
78581;SDS011;67878;46.242;5.974;2023-07-24T08:34:14;5.90;;;4.88;;
78581;SDS011;67878;46.242;5.974;2023-07-24T08:36:39;8.65;;;4.72;;
78581;SDS011;67878;46.242;5.974;2023-07-24T08:39:04;5.97;;;4.00;;
78581;SDS011;67878;46.242;5.974;2023-07-24T08:41:30;5.70;;;4.38;;
78581;SDS011;67878;46.242;5.974;2023-07-24T08:43:57;5.80;;;4.78;;
78581;SDS011;67878;46.242;5.974;2023-07-24T09:09:44;5.32;;;4.35;;
78581;SDS011;67878;46.242;5.974;2023-07-24T09:12:12;7.40;;;4.53;;
78581;SDS011;67878;46.242;5.974;2023-07-24T09:14:40;7.38;;;4.65;;
78581;SDS011;67878;46.242;5.974;2023-07-24T09:17:06;7.47;;;4.78;;
78581;SDS011;67878;46.242;5.974;2023-07-24T09:19:35;6.93;;;4.88;;
78581;SDS011;67878;46.242;5.974;2023-07-24T09:24:57;7.25;;;4.43;;
78581;SDS011;67878;46.242;5.974;2023-07-24T09:27:30;6.22;;;4.40;;
78581;SDS011;67878;46.242;5.974;2023-07-24T09:29:58;6.20;;;4.40;;
78581;SDS011;67878;46.242;5.974;2023-07-24T09:32:30;7.72;;;5.20;;
78581;SDS011;67878;46.242;5.974;2023-07-24T09:35:00;9.18;;;4.65;;
78581;SDS011;67878;46.242;5.974;2023-07-24T09:37:34;6.22;;;4.47;;
78581;SDS011;67878;46.242;5.974;2023-07-24T09:40:06;5.57;;;4.45;;
78581;SDS011;67878;46.242;5.974;2023-07-24T09:42:35;6.88;;;4.60;;
78581;SDS011;67878;46.242;5.974;2023-07-24T09:45:02;7.10;;;4.53;;
78581;SDS011;67878;46.242;5.974;2023-07-24T09:47:28;6.78;;;4.70;;
78581;SDS011;67878;46.242;5.974;2023-07-24T09:49:54;5.75;;;4.13;;
78581;SDS011;67878;46.242;5.974;2023-07-24T09:52:20;7.38;;;4.75;;
78581;SDS011;67878;46.242;5.974;2023-07-24T09:57:18;6.63;;;4.57;;
78581;SDS011;67878;46.242;5.974;2023-07-24T09:59:45;6.93;;;4.63;;
78581;SDS011;67878;46.242;5.974;2023-07-24T10:02:12;5.65;;;4.28;;
78581;SDS011;67878;46.242;5.974;2023-07-24T10:04:37;6.55;;;4.28;;
78581;SDS011;67878;46.242;5.974;2023-07-24T10:07:05;6.72;;;4.25;;
78581;SDS011;67878;46.242;5.974;2023-07-24T10:09:31;6.68;;;4.60;;
78581;SDS011;67878;46.242;5.974;2023-07-24T10:11:58;7.78;;;4.63;;
78581;SDS011;67878;46.242;5.974;2023-07-24T10:14:24;6.45;;;4.72;;
78581;SDS011;67878;46.242;5.974;2023-07-24T10:16:50;6.78;;;4.47;;
78581;SDS011;67878;46.242;5.974;2023-07-24T10:19:20;5.55;;;4.32;;
78581;SDS011;67878;46.242;5.974;2023-07-24T10:21:46;5.47;;;4.10;;
78581;SDS011;67878;46.242;5.974;2023-07-24T10:24:12;6.18;;;4.20;;
78581;SDS011;67878;46.242;5.974;2023-07-24T10:26:38;7.65;;;4.28;;
78581;SDS011;67878;46.242;5.974;2023-07-24T10:29:04;6.30;;;4.10;;
78581;SDS011;67878;46.242;5.974;2023-07-24T10:31:31;5.85;;;4.05;;
78581;SDS011;67878;46.242;5.974;2023-07-24T10:34:03;6.53;;;4.60;;
78581;SDS011;67878;46.242;5.974;2023-07-24T10:36:32;8.02;;;4.68;;
78581;SDS011;67878;46.242;5.974;2023-07-24T10:38:58;6.07;;;3.92;;
78581;SDS011;67878;46.242;5.974;2023-07-24T10:41:33;6.57;;;4.50;;
78581;SDS011;67878;46.242;5.974;2023-07-24T10:44:02;6.15;;;4.50;;
78581;SDS011;67878;46.242;5.974;2023-07-24T10:46:42;5.50;;;4.10;;
78581;SDS011;67878;46.242;5.974;2023-07-24T10:51:33;6.30;;;4.60;;
78581;SDS011;67878;46.242;5.974;2023-07-24T10:54:00;6.30;;;3.90;;
78581;SDS011;67878;46.242;5.974;2023-07-24T10:56:26;6.78;;;4.65;;
78581;SDS011;67878;46.242;5.974;2023-07-24T10:58:52;7.65;;;4.65;;
78581;SDS011;67878;46.242;5.974;2023-07-24T11:01:17;5.60;;;4.30;;
78581;SDS011;67878;46.242;5.974;2023-07-24T11:03:43;6.40;;;4.30;;
78581;SDS011;67878;46.242;5.974;2023-07-24T11:06:13;8.25;;;4.22;;
78581;SDS011;67878;46.242;5.974;2023-07-24T11:08:39;5.90;;;4.20;;
78581;SDS011;67878;46.242;5.974;2023-07-24T11:11:05;5.35;;;4.53;;
78581;SDS011;67878;46.242;5.974;2023-07-24T11:13:31;5.68;;;4.72;;
78581;SDS011;67878;46.242;5.974;2023-07-24T11:15:57;6.10;;;4.57;;
78581;SDS011;67878;46.242;5.974;2023-07-24T11:18:30;6.53;;;4.65;;
78581;SDS011;67878;46.242;5.974;2023-07-24T11:20:59;5.93;;;4.18;;
78581;SDS011;67878;46.242;5.974;2023-07-24T11:23:24;6.15;;;4.13;;
78581;SDS011;67878;46.242;5.974;2023-07-24T11:25:50;5.70;;;4.20;;
78581;SDS011;67878;46.242;5.974;2023-07-24T11:28:16;8.25;;;4.70;;
78581;SDS011;67878;46.242;5.974;2023-07-24T11:30:42;7.40;;;4.78;;
78581;SDS011;67878;46.242;5.974;2023-07-24T11:33:09;5.40;;;4.80;;
78581;SDS011;67878;46.242;5.974;2023-07-24T11:35:36;7.20;;;4.78;;
78581;SDS011;67878;46.242;5.974;2023-07-24T11:38:05;7.72;;;4.85;;
78581;SDS011;67878;46.242;5.974;2023-07-24T11:40:31;7.03;;;4.63;;
78581;SDS011;67878;46.242;5.974;2023-07-24T11:42:58;7.03;;;4.88;;
78581;SDS011;67878;46.242;5.974;2023-07-24T11:45:23;8.63;;;4.95;;
78581;SDS011;67878;46.242;5.974;2023-07-24T11:47:49;8.77;;;5.35;;
78581;SDS011;67878;46.242;5.974;2023-07-24T11:50:16;5.13;;;4.20;;
78581;SDS011;67878;46.242;5.974;2023-07-24T11:52:48;7.03;;;4.95;;
78581;SDS011;67878;46.242;5.974;2023-07-24T11:55:17;6.63;;;4.70;;
78581;SDS011;67878;46.242;5.974;2023-07-24T11:58:05;9.13;;;4.82;;
78581;SDS011;67878;46.242;5.974;2023-07-24T12:00:32;8.02;;;5.15;;
78581;SDS011;67878;46.242;5.974;2023-07-24T12:02:58;7.78;;;4.95;;
78581;SDS011;67878;46.242;5.974;2023-07-24T12:05:25;8.30;;;5.47;;
78581;SDS011;67878;46.242;5.974;2023-07-24T12:07:53;8.57;;;4.63;;
78581;SDS011;67878;46.242;5.974;2023-07-24T12:10:25;9.02;;;4.85;;
78581;SDS011;67878;46.242;5.974;2023-07-24T12:12:52;8.23;;;5.18;;
78581;SDS011;67878;46.242;5.974;2023-07-24T12:15:18;8.68;;;5.10;;
78581;SDS011;67878;46.242;5.974;2023-07-24T12:17:43;8.07;;;4.97;;
78581;SDS011;67878;46.242;5.974;2023-07-24T12:20:09;6.63;;;4.35;;
78581;SDS011;67878;46.242;5.974;2023-07-24T12:22:35;7.95;;;4.70;;
78581;SDS011;67878;46.242;5.974;2023-07-24T12:25:02;10.73;;;4.82;;
78581;SDS011;67878;46.242;5.974;2023-07-24T12:27:28;7.65;;;4.53;;
78581;SDS011;67878;46.242;5.974;2023-07-24T12:29:53;8.85;;;5.07;;
78581;SDS011;67878;46.242;5.974;2023-07-24T12:32:19;9.93;;;4.05;;
78581;SDS011;67878;46.242;5.974;2023-07-24T12:34:48;6.90;;;4.18;;
78581;SDS011;67878;46.242;5.974;2023-07-24T12:37:14;8.27;;;3.97;;
78581;SDS011;67878;46.242;5.974;2023-07-24T12:39:40;6.90;;;3.80;;
78581;SDS011;67878;46.242;5.974;2023-07-24T12:42:05;6.90;;;3.50;;
78581;SDS011;67878;46.242;5.974;2023-07-24T12:44:31;7.13;;;4.00;;
78581;SDS011;67878;46.242;5.974;2023-07-24T12:46:57;4.63;;;3.60;;
78581;SDS011;67878;46.242;5.974;2023-07-24T12:49:22;5.05;;;3.60;;
78581;SDS011;67878;46.242;5.974;2023-07-24T12:51:48;4.85;;;3.70;;
78581;SDS011;67878;46.242;5.974;2023-07-24T12:54:13;3.90;;;3.17;;
78581;SDS011;67878;46.242;5.974;2023-07-24T12:56:39;5.90;;;3.95;;
78581;SDS011;67878;46.242;5.974;2023-07-24T12:59:05;8.07;;;4.03;;
78581;SDS011;67878;46.242;5.974;2023-07-24T13:01:30;7.60;;;3.53;;
78581;SDS011;67878;46.242;5.974;2023-07-24T13:03:56;7.53;;;3.97;;
78581;SDS011;67878;46.242;5.974;2023-07-24T13:06:21;5.47;;;3.45;;
78581;SDS011;67878;46.242;5.974;2023-07-24T13:08:47;7.70;;;3.90;;
78581;SDS011;67878;46.242;5.974;2023-07-24T13:11:13;3.97;;;3.08;;
78581;SDS011;67878;46.242;5.974;2023-07-24T13:13:38;5.72;;;3.50;;
78581;SDS011;67878;46.242;5.974;2023-07-24T13:16:04;6.10;;;3.70;;
78581;SDS011;67878;46.242;5.974;2023-07-24T13:18:29;4.60;;;3.08;;
78581;SDS011;67878;46.242;5.974;2023-07-24T13:20:55;6.20;;;3.65;;
78581;SDS011;67878;46.242;5.974;2023-07-24T13:23:23;6.07;;;3.75;;
78581;SDS011;67878;46.242;5.974;2023-07-24T13:25:49;6.75;;;3.83;;
78581;SDS011;67878;46.242;5.974;2023-07-24T13:28:16;4.72;;;3.33;;
78581;SDS011;67878;46.242;5.974;2023-07-24T13:30:41;5.10;;;3.80;;
78581;SDS011;67878;46.242;5.974;2023-07-24T13:33:06;4.88;;;3.53;;
78581;SDS011;67878;46.242;5.974;2023-07-24T13:35:32;6.22;;;3.97;;
78581;SDS011;67878;46.242;5.974;2023-07-24T13:37:57;5.07;;;3.88;;
78581;SDS011;67878;46.242;5.974;2023-07-24T13:40:23;5.55;;;4.28;;
78581;SDS011;67878;46.242;5.974;2023-07-24T13:42:48;5.65;;;3.75;;
78581;SDS011;67878;46.242;5.974;2023-07-24T13:45:14;5.38;;;3.78;;
78581;SDS011;67878;46.242;5.974;2023-07-24T13:47:41;7.65;;;4.25;;
78581;SDS011;67878;46.242;5.974;2023-07-24T13:50:10;6.03;;;3.83;;
78581;SDS011;67878;46.242;5.974;2023-07-24T13:52:36;6.72;;;4.20;;
78581;SDS011;67878;46.242;5.974;2023-07-24T13:55:02;5.63;;;3.88;;
78581;SDS011;67878;46.242;5.974;2023-07-24T13:57:27;5.10;;;4.10;;
78581;SDS011;67878;46.242;5.974;2023-07-24T13:59:52;4.53;;;3.65;;
78581;SDS011;67878;46.242;5.974;2023-07-24T14:02:18;5.95;;;4.00;;
78581;SDS011;67878;46.242;5.974;2023-07-24T14:04:43;4.93;;;4.00;;
78581;SDS011;67878;46.242;5.974;2023-07-24T14:07:09;7.10;;;4.05;;
78581;SDS011;67878;46.242;5.974;2023-07-24T14:09:35;6.22;;;4.07;;
78581;SDS011;67878;46.242;5.974;2023-07-24T14:12:00;5.88;;;3.90;;
78581;SDS011;67878;46.242;5.974;2023-07-24T14:14:26;6.05;;;4.30;;
78581;SDS011;67878;46.242;5.974;2023-07-24T14:16:51;8.25;;;4.93;;
78581;SDS011;67878;46.242;5.974;2023-07-24T14:19:17;6.00;;;4.38;;
78581;SDS011;67878;46.242;5.974;2023-07-24T14:21:43;5.38;;;4.25;;
78581;SDS011;67878;46.242;5.974;2023-07-24T14:24:09;6.13;;;4.15;;
78581;SDS011;67878;46.242;5.974;2023-07-24T14:26:34;7.07;;;4.40;;
78581;SDS011;67878;46.242;5.974;2023-07-24T14:29:02;5.32;;;4.40;;
78581;SDS011;67878;46.242;5.974;2023-07-24T14:31:27;6.22;;;4.47;;
78581;SDS011;67878;46.242;5.974;2023-07-24T14:33:54;6.93;;;4.40;;
78581;SDS011;67878;46.242;5.974;2023-07-24T14:36:19;5.70;;;4.90;;
78581;SDS011;67878;46.242;5.974;2023-07-24T14:38:44;6.45;;;4.75;;
78581;SDS011;67878;46.242;5.974;2023-07-24T14:41:10;6.22;;;4.72;;
78581;SDS011;67878;46.242;5.974;2023-07-24T14:43:37;6.13;;;5.05;;
78581;SDS011;67878;46.242;5.974;2023-07-24T14:46:04;7.72;;;4.95;;
78581;SDS011;67878;46.242;5.974;2023-07-24T14:48:29;8.13;;;4.90;;
78581;SDS011;67878;46.242;5.974;2023-07-24T14:50:55;6.43;;;4.90;;
78581;SDS011;67878;46.242;5.974;2023-07-24T14:53:22;6.38;;;4.82;;
78581;SDS011;67878;46.242;5.974;2023-07-24T14:55:49;6.25;;;4.50;;
78581;SDS011;67878;46.242;5.974;2023-07-24T14:58:14;6.13;;;4.35;;
78581;SDS011;67878;46.242;5.974;2023-07-24T15:00:39;7.00;;;4.63;;
78581;SDS011;67878;46.242;5.974;2023-07-24T15:03:05;6.10;;;4.90;;
78581;SDS011;67878;46.242;5.974;2023-07-24T15:05:31;6.80;;;5.05;;
78581;SDS011;67878;46.242;5.974;2023-07-24T15:07:56;6.45;;;5.00;;
78581;SDS011;67878;46.242;5.974;2023-07-24T15:10:22;5.55;;;4.93;;
78581;SDS011;67878;46.242;5.974;2023-07-24T15:12:48;8.00;;;5.25;;